YCNX weather

Cooranga Airport
New South Wales, Australia

Public forecast

Using degrees Celsius for public forecast. Weather courtesy of forecast.io.

METAR (pilot weather report)

Closest report is Moree Airport, 54.8 nm (101.5 km) WSW. Retrieved 2019/06/19 19:00 UTC (39 minutes ago):

YMOR 191900Z AUTO 00000KT 9999 // NCD 00/M03 Q1021

TAF (pilot weather forecast)

Closest forecast is RAAF Base Amberley, 133.8 nm (247.7 km) NE. Retrieved 2019/06/19 18:00 UTC (2 hours ago):

TAF YAMB 191658Z 1918/2012 VRB03KT 9999 MIFG SCT030 FM192100 17008KT 9999 SCT035 FM200700 18005KT 9999 -SHRA SCT030 SCT045 PROB30 1918/1922 0500 FG